sensor_id;sensor_type;location;lat;lon;timestamp;P1;durP1;ratioP1;P2;durP2;ratioP2
32876;SDS011;19226;51.600;8.034;2023-03-14T00:01:45;4.40;;;1.02;;
32876;SDS011;19226;51.600;8.034;2023-03-14T00:04:30;9.15;;;1.50;;
32876;SDS011;19226;51.600;8.034;2023-03-14T00:07:14;4.82;;;1.60;;
32876;SDS011;19226;51.600;8.034;2023-03-14T00:09:59;4.30;;;1.13;;
32876;SDS011;19226;51.600;8.034;2023-03-14T00:12:43;6.50;;;1.63;;
32876;SDS011;19226;51.600;8.034;2023-03-14T00:15:28;7.53;;;1.30;;
32876;SDS011;19226;51.600;8.034;2023-03-14T00:18:13;3.00;;;1.20;;
32876;SDS011;19226;51.600;8.034;2023-03-14T00:20:58;4.20;;;1.10;;
32876;SDS011;19226;51.600;8.034;2023-03-14T00:23:44;7.18;;;1.42;;
32876;SDS011;19226;51.600;8.034;2023-03-14T00:26:29;3.58;;;1.33;;
32876;SDS011;19226;51.600;8.034;2023-03-14T00:29:13;6.00;;;1.35;;
32876;SDS011;19226;51.600;8.034;2023-03-14T00:31:58;8.32;;;1.42;;
32876;SDS011;19226;51.600;8.034;2023-03-14T00:34:43;3.95;;;1.25;;
32876;SDS011;19226;51.600;8.034;2023-03-14T00:37:27;5.22;;;1.05;;
32876;SDS011;19226;51.600;8.034;2023-03-14T00:40:11;9.13;;;1.45;;
32876;SDS011;19226;51.600;8.034;2023-03-14T00:42:56;5.63;;;1.35;;
32876;SDS011;19226;51.600;8.034;2023-03-14T00:45:41;7.32;;;1.13;;
32876;SDS011;19226;51.600;8.034;2023-03-14T00:48:25;4.18;;;0.88;;
32876;SDS011;19226;51.600;8.034;2023-03-14T00:51:11;5.47;;;1.10;;
32876;SDS011;19226;51.600;8.034;2023-03-14T00:54:00;7.13;;;1.20;;
32876;SDS011;19226;51.600;8.034;2023-03-14T00:56:45;3.38;;;1.02;;
32876;SDS011;19226;51.600;8.034;2023-03-14T00:59:30;4.47;;;1.00;;
32876;SDS011;19226;51.600;8.034;2023-03-14T01:02:14;4.78;;;1.15;;
32876;SDS011;19226;51.600;8.034;2023-03-14T01:04:59;6.60;;;1.77;;
32876;SDS011;19226;51.600;8.034;2023-03-14T01:07:43;3.13;;;1.23;;
32876;SDS011;19226;51.600;8.034;2023-03-14T01:10:28;3.53;;;1.35;;
32876;SDS011;19226;51.600;8.034;2023-03-14T01:13:13;5.40;;;1.17;;
32876;SDS011;19226;51.600;8.034;2023-03-14T01:16:05;2.92;;;0.90;;
32876;SDS011;19226;51.600;8.034;2023-03-14T01:18:55;3.53;;;1.40;;
32876;SDS011;19226;51.600;8.034;2023-03-14T01:21:40;3.60;;;1.20;;
32876;SDS011;19226;51.600;8.034;2023-03-14T01:24:24;3.55;;;1.05;;
32876;SDS011;19226;51.600;8.034;2023-03-14T01:27:09;4.47;;;1.17;;
32876;SDS011;19226;51.600;8.034;2023-03-14T01:29:54;5.50;;;1.20;;
32876;SDS011;19226;51.600;8.034;2023-03-14T01:32:39;3.90;;;0.90;;
32876;SDS011;19226;51.600;8.034;2023-03-14T01:35:24;7.78;;;1.20;;
32876;SDS011;19226;51.600;8.034;2023-03-14T01:38:09;7.35;;;1.30;;
32876;SDS011;19226;51.600;8.034;2023-03-14T01:40:53;3.88;;;1.48;;
32876;SDS011;19226;51.600;8.034;2023-03-14T01:43:38;6.68;;;1.25;;
32876;SDS011;19226;51.600;8.034;2023-03-14T01:49:28;2.50;;;1.13;;
32876;SDS011;19226;51.600;8.034;2023-03-14T01:52:32;7.53;;;0.90;;
32876;SDS011;19226;51.600;8.034;2023-03-14T01:55:26;5.10;;;1.20;;
32876;SDS011;19226;51.600;8.034;2023-03-14T01:58:10;10.90;;;1.23;;
32876;SDS011;19226;51.600;8.034;2023-03-14T02:00:56;10.00;;;1.65;;
32876;SDS011;19226;51.600;8.034;2023-03-14T02:03:53;7.63;;;1.48;;
32876;SDS011;19226;51.600;8.034;2023-03-14T02:09:31;4.60;;;1.00;;
32876;SDS011;19226;51.600;8.034;2023-03-14T02:12:17;3.92;;;0.68;;
32876;SDS011;19226;51.600;8.034;2023-03-14T02:15:21;2.03;;;0.50;;
32876;SDS011;19226;51.600;8.034;2023-03-14T02:18:15;1.50;;;0.52;;
32876;SDS011;19226;51.600;8.034;2023-03-14T02:21:34;7.20;;;0.65;;
32876;SDS011;19226;51.600;8.034;2023-03-14T02:24:33;1.48;;;0.50;;
32876;SDS011;19226;51.600;8.034;2023-03-14T02:27:28;1.90;;;0.75;;
32876;SDS011;19226;51.600;8.034;2023-03-14T02:30:13;1.77;;;0.65;;
32876;SDS011;19226;51.600;8.034;2023-03-14T02:35:55;2.67;;;0.55;;
32876;SDS011;19226;51.600;8.034;2023-03-14T02:41:34;1.42;;;0.50;;
32876;SDS011;19226;51.600;8.034;2023-03-14T02:44:21;6.13;;;0.90;;
32876;SDS011;19226;51.600;8.034;2023-03-14T02:47:07;3.70;;;0.95;;
32876;SDS011;19226;51.600;8.034;2023-03-14T02:49:53;3.10;;;0.70;;
32876;SDS011;19226;51.600;8.034;2023-03-14T02:52:43;8.23;;;0.82;;
32876;SDS011;19226;51.600;8.034;2023-03-14T02:55:28;3.42;;;0.88;;
32876;SDS011;19226;51.600;8.034;2023-03-14T02:58:17;3.17;;;0.50;;
32876;SDS011;19226;51.600;8.034;2023-03-14T03:01:04;2.45;;;0.95;;
32876;SDS011;19226;51.600;8.034;2023-03-14T03:03:49;1.77;;;0.85;;
32876;SDS011;19226;51.600;8.034;2023-03-14T03:06:36;1.98;;;0.57;;
32876;SDS011;19226;51.600;8.034;2023-03-14T03:09:21;4.25;;;0.60;;
32876;SDS011;19226;51.600;8.034;2023-03-14T03:12:06;2.38;;;0.65;;
32876;SDS011;19226;51.600;8.034;2023-03-14T03:14:51;6.53;;;1.10;;
32876;SDS011;19226;51.600;8.034;2023-03-14T03:17:35;1.30;;;0.77;;
32876;SDS011;19226;51.600;8.034;2023-03-14T03:20:20;7.50;;;1.20;;
32876;SDS011;19226;51.600;8.034;2023-03-14T03:23:04;3.70;;;0.88;;
32876;SDS011;19226;51.600;8.034;2023-03-14T03:25:49;3.55;;;0.90;;
32876;SDS011;19226;51.600;8.034;2023-03-14T03:28:34;6.78;;;1.10;;
32876;SDS011;19226;51.600;8.034;2023-03-14T03:31:19;10.30;;;2.00;;
32876;SDS011;19226;51.600;8.034;2023-03-14T03:34:05;2.15;;;0.80;;
32876;SDS011;19226;51.600;8.034;2023-03-14T03:36:49;2.10;;;0.65;;
32876;SDS011;19226;51.600;8.034;2023-03-14T03:39:34;4.85;;;1.35;;
32876;SDS011;19226;51.600;8.034;2023-03-14T03:42:18;3.92;;;1.10;;
32876;SDS011;19226;51.600;8.034;2023-03-14T03:45:04;6.05;;;1.25;;
32876;SDS011;19226;51.600;8.034;2023-03-14T03:47:52;4.32;;;0.98;;
32876;SDS011;19226;51.600;8.034;2023-03-14T03:50:37;2.13;;;0.70;;
32876;SDS011;19226;51.600;8.034;2023-03-14T03:53:27;6.47;;;1.17;;
32876;SDS011;19226;51.600;8.034;2023-03-14T03:56:11;5.38;;;1.02;;
32876;SDS011;19226;51.600;8.034;2023-03-14T03:58:57;5.68;;;1.27;;
32876;SDS011;19226;51.600;8.034;2023-03-14T04:01:42;6.25;;;1.15;;
32876;SDS011;19226;51.600;8.034;2023-03-14T04:04:27;3.78;;;0.98;;
32876;SDS011;19226;51.600;8.034;2023-03-14T04:07:12;6.60;;;1.25;;
32876;SDS011;19226;51.600;8.034;2023-03-14T04:09:58;3.78;;;1.10;;
32876;SDS011;19226;51.600;8.034;2023-03-14T04:12:51;5.85;;;1.00;;
32876;SDS011;19226;51.600;8.034;2023-03-14T04:15:40;6.45;;;1.58;;
32876;SDS011;19226;51.600;8.034;2023-03-14T04:18:35;2.90;;;1.10;;
32876;SDS011;19226;51.600;8.034;2023-03-14T04:21:19;4.32;;;0.93;;
32876;SDS011;19226;51.600;8.034;2023-03-14T04:24:08;3.38;;;1.17;;
32876;SDS011;19226;51.600;8.034;2023-03-14T04:26:53;4.00;;;1.05;;
32876;SDS011;19226;51.600;8.034;2023-03-14T04:29:37;6.18;;;1.30;;
32876;SDS011;19226;51.600;8.034;2023-03-14T04:32:22;5.80;;;1.05;;
32876;SDS011;19226;51.600;8.034;2023-03-14T04:35:07;7.22;;;1.33;;
32876;SDS011;19226;51.600;8.034;2023-03-14T04:37:52;8.00;;;1.10;;
32876;SDS011;19226;51.600;8.034;2023-03-14T04:40:40;9.02;;;1.70;;
32876;SDS011;19226;51.600;8.034;2023-03-14T04:43:25;8.27;;;1.70;;
32876;SDS011;19226;51.600;8.034;2023-03-14T04:46:17;2.50;;;1.08;;
32876;SDS011;19226;51.600;8.034;2023-03-14T04:49:02;1.67;;;0.93;;
32876;SDS011;19226;51.600;8.034;2023-03-14T04:51:47;4.63;;;1.13;;
32876;SDS011;19226;51.600;8.034;2023-03-14T04:54:31;5.35;;;0.85;;
32876;SDS011;19226;51.600;8.034;2023-03-14T04:57:17;8.75;;;1.08;;
32876;SDS011;19226;51.600;8.034;2023-03-14T05:00:04;1.92;;;0.60;;
32876;SDS011;19226;51.600;8.034;2023-03-14T05:03:28;3.55;;;0.80;;
32876;SDS011;19226;51.600;8.034;2023-03-14T05:06:36;3.90;;;0.90;;
32876;SDS011;19226;51.600;8.034;2023-03-14T05:09:30;0.73;;;0.50;;
32876;SDS011;19226;51.600;8.034;2023-03-14T05:12:38;1.60;;;0.70;;
32876;SDS011;19226;51.600;8.034;2023-03-14T05:15:37;2.05;;;0.90;;
32876;SDS011;19226;51.600;8.034;2023-03-14T05:18:39;4.60;;;0.82;;
32876;SDS011;19226;51.600;8.034;2023-03-14T05:21:30;2.53;;;0.90;;
32876;SDS011;19226;51.600;8.034;2023-03-14T05:24:50;5.88;;;0.90;;
32876;SDS011;19226;51.600;8.034;2023-03-14T05:27:54;1.67;;;0.93;;
32876;SDS011;19226;51.600;8.034;2023-03-14T05:31:05;6.22;;;0.98;;
32876;SDS011;19226;51.600;8.034;2023-03-14T05:34:16;7.05;;;1.15;;
32876;SDS011;19226;51.600;8.034;2023-03-14T05:37:18;2.38;;;1.10;;
32876;SDS011;19226;51.600;8.034;2023-03-14T05:40:22;6.88;;;1.20;;
32876;SDS011;19226;51.600;8.034;2023-03-14T05:43:19;6.32;;;0.88;;
32876;SDS011;19226;51.600;8.034;2023-03-14T05:46:13;4.05;;;1.40;;
32876;SDS011;19226;51.600;8.034;2023-03-14T05:49:20;2.83;;;1.08;;
32876;SDS011;19226;51.600;8.034;2023-03-14T05:52:30;1.40;;;0.90;;
32876;SDS011;19226;51.600;8.034;2023-03-14T05:55:25;6.30;;;1.48;;
32876;SDS011;19226;51.600;8.034;2023-03-14T05:58:33;6.50;;;1.58;;
32876;SDS011;19226;51.600;8.034;2023-03-14T06:01:43;11.93;;;2.85;;
32876;SDS011;19226;51.600;8.034;2023-03-14T06:04:33;5.50;;;1.60;;
32876;SDS011;19226;51.600;8.034;2023-03-14T06:07:17;5.35;;;1.17;;
32876;SDS011;19226;51.600;8.034;2023-03-14T06:10:02;5.70;;;1.35;;
32876;SDS011;19226;51.600;8.034;2023-03-14T06:12:47;4.13;;;1.30;;
32876;SDS011;19226;51.600;8.034;2023-03-14T06:15:32;8.77;;;1.60;;
32876;SDS011;19226;51.600;8.034;2023-03-14T06:18:17;4.75;;;1.52;;
32876;SDS011;19226;51.600;8.034;2023-03-14T06:21:02;4.85;;;1.67;;
32876;SDS011;19226;51.600;8.034;2023-03-14T06:23:46;6.10;;;1.70;;
32876;SDS011;19226;51.600;8.034;2023-03-14T06:26:31;6.07;;;2.10;;
32876;SDS011;19226;51.600;8.034;2023-03-14T06:29:16;3.35;;;1.50;;
32876;SDS011;19226;51.600;8.034;2023-03-14T06:32:01;6.45;;;1.42;;
32876;SDS011;19226;51.600;8.034;2023-03-14T06:34:45;2.88;;;1.60;;
32876;SDS011;19226;51.600;8.034;2023-03-14T06:37:30;2.25;;;1.05;;
32876;SDS011;19226;51.600;8.034;2023-03-14T06:40:15;7.75;;;1.30;;
32876;SDS011;19226;51.600;8.034;2023-03-14T06:43:13;6.50;;;1.10;;
32876;SDS011;19226;51.600;8.034;2023-03-14T06:46:00;7.97;;;1.55;;
32876;SDS011;19226;51.600;8.034;2023-03-14T06:48:45;2.63;;;1.10;;
32876;SDS011;19226;51.600;8.034;2023-03-14T06:51:30;5.47;;;1.08;;
32876;SDS011;19226;51.600;8.034;2023-03-14T06:54:15;5.45;;;1.10;;
32876;SDS011;19226;51.600;8.034;2023-03-14T06:57:00;2.42;;;1.02;;
32876;SDS011;19226;51.600;8.034;2023-03-14T06:59:45;4.97;;;0.80;;
32876;SDS011;19226;51.600;8.034;2023-03-14T07:02:29;0.60;;;0.60;;
32876;SDS011;19226;51.600;8.034;2023-03-14T07:05:17;0.82;;;0.57;;
32876;SDS011;19226;51.600;8.034;2023-03-14T07:08:02;13.38;;;1.45;;
32876;SDS011;19226;51.600;8.034;2023-03-14T07:10:46;2.00;;;0.43;;
32876;SDS011;19226;51.600;8.034;2023-03-14T07:13:31;1.65;;;0.70;;
32876;SDS011;19226;51.600;8.034;2023-03-14T07:16:20;1.42;;;0.40;;
32876;SDS011;19226;51.600;8.034;2023-03-14T07:19:05;3.40;;;0.40;;
32876;SDS011;19226;51.600;8.034;2023-03-14T07:21:49;2.22;;;0.45;;
32876;SDS011;19226;51.600;8.034;2023-03-14T07:27:23;1.88;;;0.52;;
32876;SDS011;19226;51.600;8.034;2023-03-14T07:30:07;1.75;;;0.40;;
32876;SDS011;19226;51.600;8.034;2023-03-14T07:32:52;0.40;;;0.40;;
32876;SDS011;19226;51.600;8.034;2023-03-14T07:35:39;1.42;;;0.43;;
32876;SDS011;19226;51.600;8.034;2023-03-14T07:38:24;0.38;;;0.38;;
32876;SDS011;19226;51.600;8.034;2023-03-14T07:41:25;0.50;;;0.30;;
32876;SDS011;19226;51.600;8.034;2023-03-14T07:44:28;0.40;;;0.40;;
32876;SDS011;19226;51.600;8.034;2023-03-14T07:47:12;1.60;;;0.50;;
32876;SDS011;19226;51.600;8.034;2023-03-14T07:49:57;1.65;;;0.40;;
32876;SDS011;19226;51.600;8.034;2023-03-14T07:52:42;0.20;;;0.20;;
32876;SDS011;19226;51.600;8.034;2023-03-14T07:55:26;1.30;;;0.50;;
32876;SDS011;19226;51.600;8.034;2023-03-14T07:58:11;0.43;;;0.30;;
32876;SDS011;19226;51.600;8.034;2023-03-14T08:00:58;0.40;;;0.40;;
32876;SDS011;19226;51.600;8.034;2023-03-14T08:03:42;0.30;;;0.30;;
32876;SDS011;19226;51.600;8.034;2023-03-14T08:06:27;1.95;;;0.57;;
32876;SDS011;19226;51.600;8.034;2023-03-14T08:09:11;0.30;;;0.30;;
32876;SDS011;19226;51.600;8.034;2023-03-14T08:11:56;0.40;;;0.40;;
32876;SDS011;19226;51.600;8.034;2023-03-14T08:14:41;0.22;;;0.20;;
32876;SDS011;19226;51.600;8.034;2023-03-14T08:17:25;1.02;;;0.30;;
32876;SDS011;19226;51.600;8.034;2023-03-14T08:20:10;1.70;;;0.40;;
32876;SDS011;19226;51.600;8.034;2023-03-14T08:22:57;0.35;;;0.30;;
32876;SDS011;19226;51.600;8.034;2023-03-14T08:25:42;0.30;;;0.30;;
32876;SDS011;19226;51.600;8.034;2023-03-14T08:28:27;0.40;;;0.40;;
32876;SDS011;19226;51.600;8.034;2023-03-14T08:31:16;0.30;;;0.30;;
32876;SDS011;19226;51.600;8.034;2023-03-14T08:34:01;0.40;;;0.40;;
32876;SDS011;19226;51.600;8.034;2023-03-14T08:36:46;0.63;;;0.35;;
32876;SDS011;19226;51.600;8.034;2023-03-14T08:39:30;0.30;;;0.30;;
32876;SDS011;19226;51.600;8.034;2023-03-14T08:42:15;0.73;;;0.30;;
32876;SDS011;19226;51.600;8.034;2023-03-14T08:45:00;0.93;;;0.47;;
32876;SDS011;19226;51.600;8.034;2023-03-14T08:47:45;1.10;;;0.40;;
32876;SDS011;19226;51.600;8.034;2023-03-14T08:50:30;0.30;;;0.30;;
32876;SDS011;19226;51.600;8.034;2023-03-14T08:53:14;0.40;;;0.30;;
32876;SDS011;19226;51.600;8.034;2023-03-14T08:55:59;0.60;;;0.40;;
32876;SDS011;19226;51.600;8.034;2023-03-14T08:58:44;0.20;;;0.20;;
32876;SDS011;19226;51.600;8.034;2023-03-14T09:01:28;1.30;;;0.40;;
32876;SDS011;19226;51.600;8.034;2023-03-14T09:04:12;1.65;;;0.50;;
32876;SDS011;19226;51.600;8.034;2023-03-14T09:06:57;1.92;;;0.50;;
32876;SDS011;19226;51.600;8.034;2023-03-14T09:09:43;1.35;;;0.47;;
32876;SDS011;19226;51.600;8.034;2023-03-14T09:12:27;0.30;;;0.30;;
32876;SDS011;19226;51.600;8.034;2023-03-14T09:15:12;0.60;;;0.60;;
32876;SDS011;19226;51.600;8.034;2023-03-14T09:17:56;0.50;;;0.47;;
32876;SDS011;19226;51.600;8.034;2023-03-14T09:20:41;0.40;;;0.40;;
32876;SDS011;19226;51.600;8.034;2023-03-14T09:23:26;0.60;;;0.60;;
32876;SDS011;19226;51.600;8.034;2023-03-14T09:26:11;0.68;;;0.40;;
32876;SDS011;19226;51.600;8.034;2023-03-14T09:28:55;0.60;;;0.50;;
32876;SDS011;19226;51.600;8.034;2023-03-14T09:31:40;0.68;;;0.60;;
32876;SDS011;19226;51.600;8.034;2023-03-14T09:34:25;1.75;;;0.40;;
32876;SDS011;19226;51.600;8.034;2023-03-14T09:37:10;0.50;;;0.50;;
32876;SDS011;19226;51.600;8.034;2023-03-14T09:39:54;1.75;;;0.60;;
32876;SDS011;19226;51.600;8.034;2023-03-14T09:42:39;1.80;;;0.68;;
32876;SDS011;19226;51.600;8.034;2023-03-14T09:51:05;0.60;;;0.60;;
32876;SDS011;19226;51.600;8.034;2023-03-14T09:53:55;0.52;;;0.52;;
32876;SDS011;19226;51.600;8.034;2023-03-14T09:56:40;0.68;;;0.68;;
32876;SDS011;19226;51.600;8.034;2023-03-14T09:59:24;2.22;;;0.80;;
32876;SDS011;19226;51.600;8.034;2023-03-14T10:02:15;2.05;;;1.02;;
32876;SDS011;19226;51.600;8.034;2023-03-14T10:05:17;1.75;;;0.90;;
32876;SDS011;19226;51.600;8.034;2023-03-14T10:08:03;3.97;;;1.42;;
32876;SDS011;19226;51.600;8.034;2023-03-14T10:10:48;2.20;;;1.70;;
32876;SDS011;19226;51.600;8.034;2023-03-14T10:13:33;18.90;;;2.00;;
32876;SDS011;19226;51.600;8.034;2023-03-14T10:16:18;4.28;;;1.55;;
32876;SDS011;19226;51.600;8.034;2023-03-14T10:19:13;1.20;;;1.10;;
32876;SDS011;19226;51.600;8.034;2023-03-14T10:22:00;0.90;;;0.65;;
32876;SDS011;19226;51.600;8.034;2023-03-14T10:24:46;1.17;;;0.52;;
32876;SDS011;19226;51.600;8.034;2023-03-14T10:27:36;0.65;;;0.43;;
32876;SDS011;19226;51.600;8.034;2023-03-14T10:30:37;2.15;;;0.30;;
32876;SDS011;19226;51.600;8.034;2023-03-14T10:33:28;0.80;;;0.60;;
32876;SDS011;19226;51.600;8.034;2023-03-14T10:36:19;0.50;;;0.50;;
32876;SDS011;19226;51.600;8.034;2023-03-14T10:45:02;1.48;;;0.40;;
32876;SDS011;19226;51.600;8.034;2023-03-14T10:47:51;0.35;;;0.35;;
32876;SDS011;19226;51.600;8.034;2023-03-14T10:50:36;1.38;;;0.50;;
32876;SDS011;19226;51.600;8.034;2023-03-14T10:53:21;0.57;;;0.38;;
32876;SDS011;19226;51.600;8.034;2023-03-14T10:56:06;0.28;;;0.28;;
32876;SDS011;19226;51.600;8.034;2023-03-14T10:58:54;1.05;;;0.35;;
32876;SDS011;19226;51.600;8.034;2023-03-14T11:01:41;0.40;;;0.35;;
32876;SDS011;19226;51.600;8.034;2023-03-14T11:07:48;0.47;;;0.40;;
32876;SDS011;19226;51.600;8.034;2023-03-14T11:10:39;0.38;;;0.38;;
32876;SDS011;19226;51.600;8.034;2023-03-14T11:17:18;0.45;;;0.40;;
32876;SDS011;19226;51.600;8.034;2023-03-14T11:23:09;3.15;;;0.60;;
32876;SDS011;19226;51.600;8.034;2023-03-14T11:26:16;2.60;;;0.98;;
32876;SDS011;19226;51.600;8.034;2023-03-14T11:41:31;0.85;;;0.45;;
32876;SDS011;19226;51.600;8.034;2023-03-14T11:44:20;1.15;;;0.50;;
32876;SDS011;19226;51.600;8.034;2023-03-14T11:47:18;0.40;;;0.40;;
32876;SDS011;19226;51.600;8.034;2023-03-14T11:50:08;0.40;;;0.40;;
32876;SDS011;19226;51.600;8.034;2023-03-14T11:53:16;0.60;;;0.60;;
32876;SDS011;19226;51.600;8.034;2023-03-14T11:56:11;1.15;;;0.60;;
32876;SDS011;19226;51.600;8.034;2023-03-14T11:59:07;1.55;;;0.60;;
32876;SDS011;19226;51.600;8.034;2023-03-14T12:02:01;1.27;;;0.43;;
32876;SDS011;19226;51.600;8.034;2023-03-14T12:11:14;5.78;;;0.90;;
32876;SDS011;19226;51.600;8.034;2023-03-14T12:14:23;7.55;;;0.80;;
32876;SDS011;19226;51.600;8.034;2023-03-14T12:17:24;2.20;;;0.60;;
32876;SDS011;19226;51.600;8.034;2023-03-14T12:20:21;3.25;;;0.65;;
32876;SDS011;19226;51.600;8.034;2023-03-14T12:23:10;4.03;;;0.73;;
32876;SDS011;19226;51.600;8.034;2023-03-14T12:31:42;6.82;;;1.15;;
32876;SDS011;19226;51.600;8.034;2023-03-14T12:34:49;7.35;;;1.15;;
32876;SDS011;19226;51.600;8.034;2023-03-14T12:37:37;2.10;;;0.98;;
32876;SDS011;19226;51.600;8.034;2023-03-14T12:40:31;2.35;;;0.88;;
32876;SDS011;19226;51.600;8.034;2023-03-14T12:43:26;6.25;;;1.33;;
32876;SDS011;19226;51.600;8.034;2023-03-14T12:46:19;5.32;;;1.05;;
32876;SDS011;19226;51.600;8.034;2023-03-14T12:49:05;2.80;;;1.05;;
32876;SDS011;19226;51.600;8.034;2023-03-14T12:51:53;3.50;;;0.80;;
32876;SDS011;19226;51.600;8.034;2023-03-14T12:54:51;7.35;;;1.25;;
32876;SDS011;19226;51.600;8.034;2023-03-14T12:57:48;4.13;;;1.33;;
32876;SDS011;19226;51.600;8.034;2023-03-14T13:00:51;2.35;;;1.00;;
32876;SDS011;19226;51.600;8.034;2023-03-14T13:03:43;9.05;;;1.45;;
32876;SDS011;19226;51.600;8.034;2023-03-14T13:09:55;7.03;;;1.50;;
32876;SDS011;19226;51.600;8.034;2023-03-14T13:12:57;4.80;;;1.52;;
32876;SDS011;19226;51.600;8.034;2023-03-14T13:15:47;2.85;;;1.60;;
32876;SDS011;19226;51.600;8.034;2023-03-14T13:21:24;6.90;;;1.77;;
32876;SDS011;19226;51.600;8.034;2023-03-14T13:24:23;7.00;;;1.67;;
32876;SDS011;19226;51.600;8.034;2023-03-14T13:27:17;6.05;;;1.55;;
32876;SDS011;19226;51.600;8.034;2023-03-14T13:33:18;9.68;;;1.45;;
32876;SDS011;19226;51.600;8.034;2023-03-14T13:36:08;7.60;;;1.33;;
32876;SDS011;19226;51.600;8.034;2023-03-14T13:38:57;11.00;;;1.73;;
32876;SDS011;19226;51.600;8.034;2023-03-14T13:41:46;14.65;;;2.53;;
32876;SDS011;19226;51.600;8.034;2023-03-14T13:44:36;18.88;;;3.00;;
32876;SDS011;19226;51.600;8.034;2023-03-14T13:47:23;16.80;;;2.53;;
32876;SDS011;19226;51.600;8.034;2023-03-14T13:50:13;12.20;;;2.08;;
32876;SDS011;19226;51.600;8.034;2023-03-14T13:53:02;10.55;;;1.85;;
32876;SDS011;19226;51.600;8.034;2023-03-14T13:55:46;15.90;;;1.90;;
32876;SDS011;19226;51.600;8.034;2023-03-14T13:58:31;13.90;;;2.15;;
32876;SDS011;19226;51.600;8.034;2023-03-14T14:01:37;6.38;;;1.90;;
32876;SDS011;19226;51.600;8.034;2023-03-14T14:04:22;18.40;;;2.30;;
32876;SDS011;19226;51.600;8.034;2023-03-14T14:07:17;11.82;;;2.83;;
32876;SDS011;19226;51.600;8.034;2023-03-14T14:10:02;18.08;;;2.20;;
32876;SDS011;19226;51.600;8.034;2023-03-14T14:15:43;8.50;;;2.65;;
32876;SDS011;19226;51.600;8.034;2023-03-14T14:18:30;17.48;;;2.47;;
32876;SDS011;19226;51.600;8.034;2023-03-14T14:21:16;10.48;;;2.10;;
32876;SDS011;19226;51.600;8.034;2023-03-14T14:24:01;21.88;;;2.47;;
32876;SDS011;19226;51.600;8.034;2023-03-14T14:26:47;7.38;;;1.83;;
32876;SDS011;19226;51.600;8.034;2023-03-14T14:29:35;16.85;;;2.22;;
32876;SDS011;19226;51.600;8.034;2023-03-14T14:32:19;18.05;;;2.67;;
32876;SDS011;19226;51.600;8.034;2023-03-14T14:35:04;18.45;;;2.83;;
32876;SDS011;19226;51.600;8.034;2023-03-14T14:37:50;17.15;;;3.58;;
32876;SDS011;19226;51.600;8.034;2023-03-14T14:40:34;18.80;;;2.80;;
32876;SDS011;19226;51.600;8.034;2023-03-14T14:43:33;25.13;;;5.20;;
32876;SDS011;19226;51.600;8.034;2023-03-14T14:46:22;26.10;;;3.35;;
32876;SDS011;19226;51.600;8.034;2023-03-14T14:49:15;16.37;;;2.83;;
32876;SDS011;19226;51.600;8.034;2023-03-14T14:52:05;26.45;;;3.03;;
32876;SDS011;19226;51.600;8.034;2023-03-14T14:55:01;10.60;;;3.10;;
32876;SDS011;19226;51.600;8.034;2023-03-14T14:57:51;24.55;;;2.72;;
32876;SDS011;19226;51.600;8.034;2023-03-14T15:00:39;16.00;;;3.28;;
32876;SDS011;19226;51.600;8.034;2023-03-14T15:03:28;18.65;;;3.00;;
32876;SDS011;19226;51.600;8.034;2023-03-14T15:06:15;13.27;;;2.70;;
32876;SDS011;19226;51.600;8.034;2023-03-14T15:09:00;19.98;;;3.15;;
32876;SDS011;19226;51.600;8.034;2023-03-14T15:11:46;20.42;;;3.17;;
32876;SDS011;19226;51.600;8.034;2023-03-14T15:14:31;24.40;;;2.67;;
32876;SDS011;19226;51.600;8.034;2023-03-14T15:17:15;14.70;;;2.58;;
32876;SDS011;19226;51.600;8.034;2023-03-14T15:20:00;19.27;;;2.83;;
32876;SDS011;19226;51.600;8.034;2023-03-14T15:22:45;13.95;;;2.30;;
32876;SDS011;19226;51.600;8.034;2023-03-14T15:25:30;13.60;;;2.47;;
32876;SDS011;19226;51.600;8.034;2023-03-14T15:28:20;10.63;;;2.28;;
32876;SDS011;19226;51.600;8.034;2023-03-14T15:31:10;8.60;;;1.98;;
32876;SDS011;19226;51.600;8.034;2023-03-14T15:33:56;15.00;;;1.92;;
32876;SDS011;19226;51.600;8.034;2023-03-14T15:36:40;12.20;;;2.35;;
32876;SDS011;19226;51.600;8.034;2023-03-14T15:39:25;8.98;;;2.00;;
32876;SDS011;19226;51.600;8.034;2023-03-14T15:42:10;14.95;;;1.83;;
32876;SDS011;19226;51.600;8.034;2023-03-14T15:44:54;13.77;;;2.10;;
32876;SDS011;19226;51.600;8.034;2023-03-14T15:47:39;9.18;;;1.90;;
32876;SDS011;19226;51.600;8.034;2023-03-14T15:50:24;13.20;;;1.85;;
32876;SDS011;19226;51.600;8.034;2023-03-14T15:53:09;11.77;;;1.80;;
32876;SDS011;19226;51.600;8.034;2023-03-14T15:55:54;11.00;;;2.03;;
32876;SDS011;19226;51.600;8.034;2023-03-14T15:58:39;12.80;;;2.42;;
32876;SDS011;19226;51.600;8.034;2023-03-14T16:01:24;8.45;;;1.48;;
32876;SDS011;19226;51.600;8.034;2023-03-14T16:04:08;16.23;;;1.90;;
32876;SDS011;19226;51.600;8.034;2023-03-14T16:06:53;6.97;;;1.50;;
32876;SDS011;19226;51.600;8.034;2023-03-14T16:09:37;8.75;;;1.77;;
32876;SDS011;19226;51.600;8.034;2023-03-14T16:12:22;4.47;;;1.25;;
32876;SDS011;19226;51.600;8.034;2023-03-14T16:15:07;5.68;;;1.55;;
32876;SDS011;19226;51.600;8.034;2023-03-14T16:17:53;3.58;;;0.95;;
32876;SDS011;19226;51.600;8.034;2023-03-14T16:20:38;9.95;;;1.52;;
32876;SDS011;19226;51.600;8.034;2023-03-14T16:23:23;5.28;;;1.75;;
32876;SDS011;19226;51.600;8.034;2023-03-14T16:26:09;6.00;;;1.27;;
32876;SDS011;19226;51.600;8.034;2023-03-14T16:28:56;8.82;;;1.70;;
32876;SDS011;19226;51.600;8.034;2023-03-14T16:31:41;12.48;;;1.77;;
32876;SDS011;19226;51.600;8.034;2023-03-14T16:34:26;8.70;;;1.40;;
32876;SDS011;19226;51.600;8.034;2023-03-14T16:37:10;6.00;;;1.83;;
32876;SDS011;19226;51.600;8.034;2023-03-14T16:39:56;12.55;;;1.52;;
32876;SDS011;19226;51.600;8.034;2023-03-14T16:42:40;8.45;;;1.50;;
32876;SDS011;19226;51.600;8.034;2023-03-14T16:45:25;6.55;;;1.30;;
32876;SDS011;19226;51.600;8.034;2023-03-14T16:48:09;4.68;;;1.13;;
32876;SDS011;19226;51.600;8.034;2023-03-14T16:50:54;12.48;;;2.75;;
32876;SDS011;19226;51.600;8.034;2023-03-14T16:53:39;11.02;;;1.70;;
32876;SDS011;19226;51.600;8.034;2023-03-14T16:56:25;7.60;;;1.33;;
32876;SDS011;19226;51.600;8.034;2023-03-14T16:59:09;10.70;;;2.10;;
32876;SDS011;19226;51.600;8.034;2023-03-14T17:01:54;9.65;;;1.67;;
32876;SDS011;19226;51.600;8.034;2023-03-14T17:04:39;6.07;;;1.55;;
32876;SDS011;19226;51.600;8.034;2023-03-14T17:07:27;12.73;;;1.75;;
32876;SDS011;19226;51.600;8.034;2023-03-14T17:10:12;12.23;;;1.73;;
32876;SDS011;19226;51.600;8.034;2023-03-14T17:12:56;9.35;;;1.65;;
32876;SDS011;19226;51.600;8.034;2023-03-14T17:15:44;9.52;;;1.50;;
32876;SDS011;19226;51.600;8.034;2023-03-14T17:18:30;6.65;;;1.10;;
32876;SDS011;19226;51.600;8.034;2023-03-14T17:21:18;11.35;;;1.80;;
32876;SDS011;19226;51.600;8.034;2023-03-14T17:24:02;10.25;;;2.10;;
32876;SDS011;19226;51.600;8.034;2023-03-14T17:26:47;8.40;;;1.55;;
32876;SDS011;19226;51.600;8.034;2023-03-14T17:29:31;18.65;;;2.33;;
32876;SDS011;19226;51.600;8.034;2023-03-14T17:32:16;11.40;;;2.08;;
32876;SDS011;19226;51.600;8.034;2023-03-14T17:35:01;6.63;;;1.40;;
32876;SDS011;19226;51.600;8.034;2023-03-14T17:37:46;8.68;;;1.25;;
32876;SDS011;19226;51.600;8.034;2023-03-14T17:40:30;2.35;;;0.93;;
32876;SDS011;19226;51.600;8.034;2023-03-14T17:43:15;9.73;;;1.42;;
32876;SDS011;19226;51.600;8.034;2023-03-14T17:46:01;8.73;;;1.92;;
32876;SDS011;19226;51.600;8.034;2023-03-14T17:48:54;6.85;;;1.35;;
32876;SDS011;19226;51.600;8.034;2023-03-14T17:51:38;8.07;;;1.75;;
32876;SDS011;19226;51.600;8.034;2023-03-14T17:54:22;7.10;;;1.27;;
32876;SDS011;19226;51.600;8.034;2023-03-14T17:57:07;10.05;;;1.67;;
32876;SDS011;19226;51.600;8.034;2023-03-14T17:59:52;10.25;;;1.65;;
32876;SDS011;19226;51.600;8.034;2023-03-14T18:02:36;11.30;;;1.98;;
32876;SDS011;19226;51.600;8.034;2023-03-14T18:05:22;8.25;;;1.88;;